sensor_id;sensor_type;location;lat;lon;timestamp;temperature;humidity
35690;DHT22;26977;44.830;-0.674;2022-10-22T00:02:17;14.00;99.90
35690;DHT22;26977;44.830;-0.674;2022-10-22T00:04:45;14.00;99.90
35690;DHT22;26977;44.830;-0.674;2022-10-22T00:07:11;13.90;99.90
35690;DHT22;26977;44.830;-0.674;2022-10-22T00:09:37;13.90;99.90
35690;DHT22;26977;44.830;-0.674;2022-10-22T00:12:03;13.90;99.90
35690;DHT22;26977;44.830;-0.674;2022-10-22T00:14:29;13.90;99.90
35690;DHT22;26977;44.830;-0.674;2022-10-22T00:16:54;13.80;99.90
35690;DHT22;26977;44.830;-0.674;2022-10-22T00:19:21;13.70;99.90
35690;DHT22;26977;44.830;-0.674;2022-10-22T00:21:46;13.60;99.90
35690;DHT22;26977;44.830;-0.674;2022-10-22T00:24:12;13.50;99.90
35690;DHT22;26977;44.830;-0.674;2022-10-22T00:26:37;13.50;99.90
35690;DHT22;26977;44.830;-0.674;2022-10-22T00:29:04;13.50;99.90
35690;DHT22;26977;44.830;-0.674;2022-10-22T00:31:30;13.50;99.90
35690;DHT22;26977;44.830;-0.674;2022-10-22T00:33:56;13.50;99.90
35690;DHT22;26977;44.830;-0.674;2022-10-22T00:36:21;13.50;99.90
35690;DHT22;26977;44.830;-0.674;2022-10-22T00:38:47;13.60;99.90
35690;DHT22;26977;44.830;-0.674;2022-10-22T00:41:13;13.60;99.90
35690;DHT22;26977;44.830;-0.674;2022-10-22T00:43:57;13.60;99.90
35690;DHT22;26977;44.830;-0.674;2022-10-22T00:46:23;13.60;99.90
35690;DHT22;26977;44.830;-0.674;2022-10-22T00:48:49;13.60;99.90
35690;DHT22;26977;44.830;-0.674;2022-10-22T00:51:15;13.60;99.90
35690;DHT22;26977;44.830;-0.674;2022-10-22T00:53:50;13.60;99.90
35690;DHT22;26977;44.830;-0.674;2022-10-22T00:56:18;13.70;99.90
35690;DHT22;26977;44.830;-0.674;2022-10-22T00:58:49;13.70;99.90
35690;DHT22;26977;44.830;-0.674;2022-10-22T01:01:20;13.70;99.90
35690;DHT22;26977;44.830;-0.674;2022-10-22T01:03:47;13.80;99.90
35690;DHT22;26977;44.830;-0.674;2022-10-22T01:06:24;13.80;99.90
35690;DHT22;26977;44.830;-0.674;2022-10-22T01:09:17;13.70;99.90
35690;DHT22;26977;44.830;-0.674;2022-10-22T01:17:24;13.60;99.90
35690;DHT22;26977;44.830;-0.674;2022-10-22T01:22:43;13.40;99.90
35690;DHT22;26977;44.830;-0.674;2022-10-22T01:25:27;13.40;99.90
35690;DHT22;26977;44.830;-0.674;2022-10-22T01:28:09;13.30;99.90
35690;DHT22;26977;44.830;-0.674;2022-10-22T01:30:38;13.20;99.90
35690;DHT22;26977;44.830;-0.674;2022-10-22T01:33:08;13.20;99.90
35690;DHT22;26977;44.830;-0.674;2022-10-22T01:35:38;13.10;99.90
35690;DHT22;26977;44.830;-0.674;2022-10-22T01:38:08;13.00;99.90
35690;DHT22;26977;44.830;-0.674;2022-10-22T01:40:35;13.00;99.90
35690;DHT22;26977;44.830;-0.674;2022-10-22T01:43:04;12.90;99.90
35690;DHT22;26977;44.830;-0.674;2022-10-22T01:45:36;12.90;99.90
35690;DHT22;26977;44.830;-0.674;2022-10-22T01:48:14;12.90;99.90
35690;DHT22;26977;44.830;-0.674;2022-10-22T01:54:14;12.80;99.90
35690;DHT22;26977;44.830;-0.674;2022-10-22T01:56:58;12.70;99.90
35690;DHT22;26977;44.830;-0.674;2022-10-22T01:59:34;12.70;99.90
35690;DHT22;26977;44.830;-0.674;2022-10-22T02:02:22;12.70;99.90
35690;DHT22;26977;44.830;-0.674;2022-10-22T02:04:59;12.70;99.90
35690;DHT22;26977;44.830;-0.674;2022-10-22T02:07:31;12.60;99.90
35690;DHT22;26977;44.830;-0.674;2022-10-22T02:09:59;12.50;99.90
35690;DHT22;26977;44.830;-0.674;2022-10-22T02:12:27;12.50;99.90
35690;DHT22;26977;44.830;-0.674;2022-10-22T02:14:54;12.40;99.90
35690;DHT22;26977;44.830;-0.674;2022-10-22T02:17:21;12.40;99.90
35690;DHT22;26977;44.830;-0.674;2022-10-22T02:19:52;12.40;99.90
35690;DHT22;26977;44.830;-0.674;2022-10-22T02:22:20;12.30;99.90
35690;DHT22;26977;44.830;-0.674;2022-10-22T02:24:46;12.30;99.90
35690;DHT22;26977;44.830;-0.674;2022-10-22T02:27:26;12.20;99.90
35690;DHT22;26977;44.830;-0.674;2022-10-22T02:30:15;12.20;99.90
35690;DHT22;26977;44.830;-0.674;2022-10-22T02:35:18;12.30;99.90
35690;DHT22;26977;44.830;-0.674;2022-10-22T02:37:44;12.30;99.90
35690;DHT22;26977;44.830;-0.674;2022-10-22T02:40:11;12.20;99.90
35690;DHT22;26977;44.830;-0.674;2022-10-22T02:42:38;12.10;99.90
35690;DHT22;26977;44.830;-0.674;2022-10-22T02:45:05;12.10;99.90
35690;DHT22;26977;44.830;-0.674;2022-10-22T02:47:31;12.10;99.90
35690;DHT22;26977;44.830;-0.674;2022-10-22T02:49:56;12.20;99.90
35690;DHT22;26977;44.830;-0.674;2022-10-22T02:52:22;12.20;99.90
35690;DHT22;26977;44.830;-0.674;2022-10-22T02:54:47;12.20;99.90
35690;DHT22;26977;44.830;-0.674;2022-10-22T02:57:13;12.30;99.90
35690;DHT22;26977;44.830;-0.674;2022-10-22T02:59:39;12.30;99.90
35690;DHT22;26977;44.830;-0.674;2022-10-22T03:02:04;12.20;99.90
35690;DHT22;26977;44.830;-0.674;2022-10-22T03:04:30;12.10;99.90
35690;DHT22;26977;44.830;-0.674;2022-10-22T03:06:56;12.10;99.90
35690;DHT22;26977;44.830;-0.674;2022-10-22T03:09:21;12.10;99.90
35690;DHT22;26977;44.830;-0.674;2022-10-22T03:11:47;12.00;99.90
35690;DHT22;26977;44.830;-0.674;2022-10-22T03:14:13;11.90;99.90
35690;DHT22;26977;44.830;-0.674;2022-10-22T03:16:38;11.90;99.90
35690;DHT22;26977;44.830;-0.674;2022-10-22T03:19:04;11.80;99.90
35690;DHT22;26977;44.830;-0.674;2022-10-22T03:21:46;11.80;99.90
35690;DHT22;26977;44.830;-0.674;2022-10-22T03:24:16;11.80;99.90
35690;DHT22;26977;44.830;-0.674;2022-10-22T03:26:44;11.80;99.90
35690;DHT22;26977;44.830;-0.674;2022-10-22T03:29:12;11.80;99.90
35690;DHT22;26977;44.830;-0.674;2022-10-22T03:31:38;11.80;99.90
35690;DHT22;26977;44.830;-0.674;2022-10-22T03:34:04;11.80;99.90
35690;DHT22;26977;44.830;-0.674;2022-10-22T03:36:31;11.70;99.90
35690;DHT22;26977;44.830;-0.674;2022-10-22T03:39:00;11.70;99.90
35690;DHT22;26977;44.830;-0.674;2022-10-22T03:41:27;11.60;99.90
35690;DHT22;26977;44.830;-0.674;2022-10-22T03:43:53;11.60;99.90
35690;DHT22;26977;44.830;-0.674;2022-10-22T03:46:19;11.60;99.90
35690;DHT22;26977;44.830;-0.674;2022-10-22T03:48:45;11.60;99.90
35690;DHT22;26977;44.830;-0.674;2022-10-22T03:51:11;11.60;99.90
35690;DHT22;26977;44.830;-0.674;2022-10-22T03:53:36;11.60;99.90
35690;DHT22;26977;44.830;-0.674;2022-10-22T03:56:06;11.60;99.90
35690;DHT22;26977;44.830;-0.674;2022-10-22T03:58:32;11.60;99.90
35690;DHT22;26977;44.830;-0.674;2022-10-22T04:01:04;11.60;99.90
35690;DHT22;26977;44.830;-0.674;2022-10-22T04:03:30;11.60;99.90
35690;DHT22;26977;44.830;-0.674;2022-10-22T04:06:03;11.90;99.90
35690;DHT22;26977;44.830;-0.674;2022-10-22T04:08:29;12.00;99.90
35690;DHT22;26977;44.830;-0.674;2022-10-22T04:10:55;11.90;99.90
35690;DHT22;26977;44.830;-0.674;2022-10-22T04:13:21;11.90;99.90
35690;DHT22;26977;44.830;-0.674;2022-10-22T04:15:47;11.90;99.90
35690;DHT22;26977;44.830;-0.674;2022-10-22T04:18:12;11.90;99.90
35690;DHT22;26977;44.830;-0.674;2022-10-22T04:20:40;11.70;99.90
35690;DHT22;26977;44.830;-0.674;2022-10-22T04:23:05;11.70;99.90
35690;DHT22;26977;44.830;-0.674;2022-10-22T04:25:31;11.70;99.90
35690;DHT22;26977;44.830;-0.674;2022-10-22T04:27:57;11.70;99.90
35690;DHT22;26977;44.830;-0.674;2022-10-22T04:30:22;11.70;99.90
35690;DHT22;26977;44.830;-0.674;2022-10-22T04:32:48;11.60;99.90
35690;DHT22;26977;44.830;-0.674;2022-10-22T04:35:13;11.60;99.90
35690;DHT22;26977;44.830;-0.674;2022-10-22T04:37:39;11.60;99.90
35690;DHT22;26977;44.830;-0.674;2022-10-22T04:40:05;11.50;99.90
35690;DHT22;26977;44.830;-0.674;2022-10-22T04:42:31;11.50;99.90
35690;DHT22;26977;44.830;-0.674;2022-10-22T04:44:57;11.50;99.90
35690;DHT22;26977;44.830;-0.674;2022-10-22T04:47:22;11.50;99.90
35690;DHT22;26977;44.830;-0.674;2022-10-22T04:49:48;11.60;99.90
35690;DHT22;26977;44.830;-0.674;2022-10-22T04:52:14;11.60;99.90
35690;DHT22;26977;44.830;-0.674;2022-10-22T04:54:39;11.50;99.90
35690;DHT22;26977;44.830;-0.674;2022-10-22T04:57:05;11.60;99.90
35690;DHT22;26977;44.830;-0.674;2022-10-22T04:59:30;11.50;99.90
35690;DHT22;26977;44.830;-0.674;2022-10-22T05:01:56;11.50;99.90
35690;DHT22;26977;44.830;-0.674;2022-10-22T05:04:22;11.40;99.90
35690;DHT22;26977;44.830;-0.674;2022-10-22T05:06:47;11.60;99.90
35690;DHT22;26977;44.830;-0.674;2022-10-22T05:09:16;11.60;99.90
35690;DHT22;26977;44.830;-0.674;2022-10-22T05:11:44;11.60;99.90
35690;DHT22;26977;44.830;-0.674;2022-10-22T05:14:14;11.50;99.90
35690;DHT22;26977;44.830;-0.674;2022-10-22T05:16:39;11.60;99.90
35690;DHT22;26977;44.830;-0.674;2022-10-22T05:19:06;11.60;99.90
35690;DHT22;26977;44.830;-0.674;2022-10-22T05:21:31;11.60;99.90
35690;DHT22;26977;44.830;-0.674;2022-10-22T05:23:58;11.60;99.90
35690;DHT22;26977;44.830;-0.674;2022-10-22T05:26:27;11.60;99.90
35690;DHT22;26977;44.830;-0.674;2022-10-22T05:28:53;11.50;99.90
35690;DHT22;26977;44.830;-0.674;2022-10-22T05:31:19;11.50;99.90
35690;DHT22;26977;44.830;-0.674;2022-10-22T05:33:45;11.50;99.90
35690;DHT22;26977;44.830;-0.674;2022-10-22T05:36:17;11.50;99.90
35690;DHT22;26977;44.830;-0.674;2022-10-22T05:38:43;11.50;99.90
35690;DHT22;26977;44.830;-0.674;2022-10-22T05:41:20;11.50;99.90
35690;DHT22;26977;44.830;-0.674;2022-10-22T05:43:46;11.50;99.90
35690;DHT22;26977;44.830;-0.674;2022-10-22T05:46:17;11.50;99.90
35690;DHT22;26977;44.830;-0.674;2022-10-22T05:48:43;11.50;99.90
35690;DHT22;26977;44.830;-0.674;2022-10-22T05:51:11;11.40;99.90
35690;DHT22;26977;44.830;-0.674;2022-10-22T05:53:39;11.40;99.90
35690;DHT22;26977;44.830;-0.674;2022-10-22T05:56:07;11.30;99.90
35690;DHT22;26977;44.830;-0.674;2022-10-22T05:58:35;11.40;99.90
35690;DHT22;26977;44.830;-0.674;2022-10-22T06:01:03;11.30;99.90
35690;DHT22;26977;44.830;-0.674;2022-10-22T06:03:29;11.30;99.90
35690;DHT22;26977;44.830;-0.674;2022-10-22T06:05:59;11.20;99.90
35690;DHT22;26977;44.830;-0.674;2022-10-22T06:08:26;11.30;99.90
35690;DHT22;26977;44.830;-0.674;2022-10-22T06:10:52;11.40;99.90
35690;DHT22;26977;44.830;-0.674;2022-10-22T06:13:18;11.40;99.90
35690;DHT22;26977;44.830;-0.674;2022-10-22T06:15:44;11.50;99.90
35690;DHT22;26977;44.830;-0.674;2022-10-22T06:18:09;11.50;99.90
35690;DHT22;26977;44.830;-0.674;2022-10-22T06:20:35;11.50;99.90
35690;DHT22;26977;44.830;-0.674;2022-10-22T06:23:01;11.60;99.90
35690;DHT22;26977;44.830;-0.674;2022-10-22T06:25:26;11.60;99.90
35690;DHT22;26977;44.830;-0.674;2022-10-22T06:27:52;11.70;99.90
35690;DHT22;26977;44.830;-0.674;2022-10-22T06:30:18;11.60;99.90
35690;DHT22;26977;44.830;-0.674;2022-10-22T06:32:43;11.60;99.90
35690;DHT22;26977;44.830;-0.674;2022-10-22T06:35:09;11.60;99.90
35690;DHT22;26977;44.830;-0.674;2022-10-22T06:37:35;11.60;99.90
35690;DHT22;26977;44.830;-0.674;2022-10-22T06:40:01;11.60;99.90
35690;DHT22;26977;44.830;-0.674;2022-10-22T06:42:27;11.70;99.90
35690;DHT22;26977;44.830;-0.674;2022-10-22T06:44:53;11.70;99.90
35690;DHT22;26977;44.830;-0.674;2022-10-22T06:47:18;11.70;99.90
35690;DHT22;26977;44.830;-0.674;2022-10-22T06:49:44;11.70;99.90
35690;DHT22;26977;44.830;-0.674;2022-10-22T06:52:10;11.80;99.90
35690;DHT22;26977;44.830;-0.674;2022-10-22T06:54:37;11.90;99.90
35690;DHT22;26977;44.830;-0.674;2022-10-22T06:57:02;12.00;99.90
35690;DHT22;26977;44.830;-0.674;2022-10-22T06:59:28;12.00;99.90
35690;DHT22;26977;44.830;-0.674;2022-10-22T07:01:54;12.10;99.90
35690;DHT22;26977;44.830;-0.674;2022-10-22T07:04:19;12.20;99.90
35690;DHT22;26977;44.830;-0.674;2022-10-22T07:06:45;12.30;99.90
35690;DHT22;26977;44.830;-0.674;2022-10-22T07:09:10;12.40;99.90
35690;DHT22;26977;44.830;-0.674;2022-10-22T07:11:42;12.50;99.90
35690;DHT22;26977;44.830;-0.674;2022-10-22T07:14:08;12.50;99.90
35690;DHT22;26977;44.830;-0.674;2022-10-22T07:16:34;12.60;99.90
35690;DHT22;26977;44.830;-0.674;2022-10-22T07:19:01;12.70;99.90
35690;DHT22;26977;44.830;-0.674;2022-10-22T07:21:27;12.70;99.90
35690;DHT22;26977;44.830;-0.674;2022-10-22T07:23:54;12.80;99.90
35690;DHT22;26977;44.830;-0.674;2022-10-22T07:26:19;12.80;99.90
35690;DHT22;26977;44.830;-0.674;2022-10-22T07:28:46;12.90;99.90
35690;DHT22;26977;44.830;-0.674;2022-10-22T07:31:13;13.00;99.90
35690;DHT22;26977;44.830;-0.674;2022-10-22T07:33:39;13.10;99.90
35690;DHT22;26977;44.830;-0.674;2022-10-22T07:36:08;13.20;99.90
35690;DHT22;26977;44.830;-0.674;2022-10-22T07:38:35;13.30;99.90
35690;DHT22;26977;44.830;-0.674;2022-10-22T07:41:01;13.40;99.90
35690;DHT22;26977;44.830;-0.674;2022-10-22T07:43:27;13.50;99.90
35690;DHT22;26977;44.830;-0.674;2022-10-22T07:45:53;13.50;99.90
35690;DHT22;26977;44.830;-0.674;2022-10-22T07:48:20;13.70;99.90
35690;DHT22;26977;44.830;-0.674;2022-10-22T07:50:48;13.70;99.90
35690;DHT22;26977;44.830;-0.674;2022-10-22T07:53:14;13.90;99.90
35690;DHT22;26977;44.830;-0.674;2022-10-22T07:55:40;14.00;99.90
35690;DHT22;26977;44.830;-0.674;2022-10-22T07:58:06;14.10;99.90
35690;DHT22;26977;44.830;-0.674;2022-10-22T08:00:31;14.20;99.90
35690;DHT22;26977;44.830;-0.674;2022-10-22T08:02:57;14.20;99.90
35690;DHT22;26977;44.830;-0.674;2022-10-22T08:05:23;14.40;99.90
35690;DHT22;26977;44.830;-0.674;2022-10-22T08:07:48;14.50;99.90
35690;DHT22;26977;44.830;-0.674;2022-10-22T08:10:14;14.60;99.90
35690;DHT22;26977;44.830;-0.674;2022-10-22T08:12:40;14.60;99.90
35690;DHT22;26977;44.830;-0.674;2022-10-22T08:15:06;14.60;99.90
35690;DHT22;26977;44.830;-0.674;2022-10-22T08:17:32;14.70;99.90
35690;DHT22;26977;44.830;-0.674;2022-10-22T08:19:58;14.70;99.90
35690;DHT22;26977;44.830;-0.674;2022-10-22T08:22:23;14.80;99.90
35690;DHT22;26977;44.830;-0.674;2022-10-22T08:24:49;15.00;99.90
35690;DHT22;26977;44.830;-0.674;2022-10-22T08:27:15;15.10;99.90
35690;DHT22;26977;44.830;-0.674;2022-10-22T08:29:41;15.20;99.90
35690;DHT22;26977;44.830;-0.674;2022-10-22T08:32:06;15.30;99.90
35690;DHT22;26977;44.830;-0.674;2022-10-22T08:34:32;15.40;99.90
35690;DHT22;26977;44.830;-0.674;2022-10-22T08:36:58;15.40;99.90
35690;DHT22;26977;44.830;-0.674;2022-10-22T08:39:23;15.50;99.90
35690;DHT22;26977;44.830;-0.674;2022-10-22T08:45:07;15.70;99.90
35690;DHT22;26977;44.830;-0.674;2022-10-22T08:47:57;15.80;99.90
35690;DHT22;26977;44.830;-0.674;2022-10-22T08:50:46;16.00;99.90
35690;DHT22;26977;44.830;-0.674;2022-10-22T08:53:16;16.20;99.90
35690;DHT22;26977;44.830;-0.674;2022-10-22T08:55:43;16.30;99.90
35690;DHT22;26977;44.830;-0.674;2022-10-22T09:00:53;16.70;99.90
35690;DHT22;26977;44.830;-0.674;2022-10-22T09:03:40;16.70;99.90
35690;DHT22;26977;44.830;-0.674;2022-10-22T09:06:24;17.00;99.90
35690;DHT22;26977;44.830;-0.674;2022-10-22T09:08:51;17.20;99.90
35690;DHT22;26977;44.830;-0.674;2022-10-22T09:13:49;17.40;99.90
35690;DHT22;26977;44.830;-0.674;2022-10-22T09:19:05;17.70;99.90
35690;DHT22;26977;44.830;-0.674;2022-10-22T09:24:45;18.00;99.90
35690;DHT22;26977;44.830;-0.674;2022-10-22T09:27:24;18.20;99.90
35690;DHT22;26977;44.830;-0.674;2022-10-22T09:29:50;18.30;99.90
35690;DHT22;26977;44.830;-0.674;2022-10-22T09:32:17;18.50;99.90
35690;DHT22;26977;44.830;-0.674;2022-10-22T09:34:47;18.50;99.90
35690;DHT22;26977;44.830;-0.674;2022-10-22T09:37:16;18.60;99.90
35690;DHT22;26977;44.830;-0.674;2022-10-22T09:39:49;18.80;99.90
35690;DHT22;26977;44.830;-0.674;2022-10-22T09:42:18;18.90;99.90
35690;DHT22;26977;44.830;-0.674;2022-10-22T09:44:53;19.00;99.90
35690;DHT22;26977;44.830;-0.674;2022-10-22T09:52:43;19.40;99.90
35690;DHT22;26977;44.830;-0.674;2022-10-22T09:55:16;19.50;99.90
35690;DHT22;26977;44.830;-0.674;2022-10-22T09:57:42;19.70;99.90
35690;DHT22;26977;44.830;-0.674;2022-10-22T10:00:10;19.80;99.90
35690;DHT22;26977;44.830;-0.674;2022-10-22T10:02:39;19.80;99.90
35690;DHT22;26977;44.830;-0.674;2022-10-22T10:05:07;19.80;99.90
35690;DHT22;26977;44.830;-0.674;2022-10-22T10:07:34;19.90;99.90
35690;DHT22;26977;44.830;-0.674;2022-10-22T10:10:01;20.00;99.90
35690;DHT22;26977;44.830;-0.674;2022-10-22T10:20:46;20.40;99.90
35690;DHT22;26977;44.830;-0.674;2022-10-22T10:23:34;20.40;99.90
35690;DHT22;26977;44.830;-0.674;2022-10-22T10:42:07;21.20;99.90
35690;DHT22;26977;44.830;-0.674;2022-10-22T10:49:56;21.40;99.90
35690;DHT22;26977;44.830;-0.674;2022-10-22T10:57:48;21.60;99.90
35690;DHT22;26977;44.830;-0.674;2022-10-22T11:00:20;21.60;99.90
35690;DHT22;26977;44.830;-0.674;2022-10-22T11:08:22;21.70;99.90
35690;DHT22;26977;44.830;-0.674;2022-10-22T11:13:30;22.10;99.90
35690;DHT22;26977;44.830;-0.674;2022-10-22T11:16:22;22.20;99.90
35690;DHT22;26977;44.830;-0.674;2022-10-22T11:19:15;22.20;99.70
35690;DHT22;26977;44.830;-0.674;2022-10-22T11:21:55;22.20;99.90
35690;DHT22;26977;44.830;-0.674;2022-10-22T11:24:48;22.30;99.60
35690;DHT22;26977;44.830;-0.674;2022-10-22T11:27:35;22.10;99.70
35690;DHT22;26977;44.830;-0.674;2022-10-22T11:30:05;22.20;99.90
35690;DHT22;26977;44.830;-0.674;2022-10-22T11:32:38;22.30;99.70
35690;DHT22;26977;44.830;-0.674;2022-10-22T11:35:08;22.20;99.50
35690;DHT22;26977;44.830;-0.674;2022-10-22T11:37:36;22.10;99.40
35690;DHT22;26977;44.830;-0.674;2022-10-22T11:42:40;22.20;99.90
35690;DHT22;26977;44.830;-0.674;2022-10-22T11:55:42;22.30;99.90
35690;DHT22;26977;44.830;-0.674;2022-10-22T11:58:38;22.40;99.50
35690;DHT22;26977;44.830;-0.674;2022-10-22T12:08:30;22.70;99.20
35690;DHT22;26977;44.830;-0.674;2022-10-22T12:11:04;22.80;99.00
35690;DHT22;26977;44.830;-0.674;2022-10-22T12:16:51;23.10;98.70
35690;DHT22;26977;44.830;-0.674;2022-10-22T12:19:28;23.30;98.30
35690;DHT22;26977;44.830;-0.674;2022-10-22T12:21:59;23.50;97.70
35690;DHT22;26977;44.830;-0.674;2022-10-22T12:24:31;23.70;96.50
35690;DHT22;26977;44.830;-0.674;2022-10-22T12:26:58;23.80;97.40
35690;DHT22;26977;44.830;-0.674;2022-10-22T12:29:24;23.80;95.80
35690;DHT22;26977;44.830;-0.674;2022-10-22T12:31:51;23.90;95.90
35690;DHT22;26977;44.830;-0.674;2022-10-22T12:34:21;23.90;95.90
35690;DHT22;26977;44.830;-0.674;2022-10-22T12:36:48;23.80;95.00
35690;DHT22;26977;44.830;-0.674;2022-10-22T12:39:21;23.80;93.90
35690;DHT22;26977;44.830;-0.674;2022-10-22T12:41:47;23.70;94.30
35690;DHT22;26977;44.830;-0.674;2022-10-22T12:44:15;23.80;93.90
35690;DHT22;26977;44.830;-0.674;2022-10-22T12:46:43;23.80;94.00
35690;DHT22;26977;44.830;-0.674;2022-10-22T12:49:20;23.70;94.70
35690;DHT22;26977;44.830;-0.674;2022-10-22T12:51:48;23.80;94.50
35690;DHT22;26977;44.830;-0.674;2022-10-22T12:54:34;23.90;94.50
35690;DHT22;26977;44.830;-0.674;2022-10-22T12:57:01;24.00;94.40
35690;DHT22;26977;44.830;-0.674;2022-10-22T12:59:37;23.90;92.80
35690;DHT22;26977;44.830;-0.674;2022-10-22T13:02:19;24.00;92.90
35690;DHT22;26977;44.830;-0.674;2022-10-22T13:07:47;24.10;92.50
35690;DHT22;26977;44.830;-0.674;2022-10-22T13:12:48;24.30;92.10
35690;DHT22;26977;44.830;-0.674;2022-10-22T13:15:41;24.20;93.40
35690;DHT22;26977;44.830;-0.674;2022-10-22T13:18:22;24.30;93.40
35690;DHT22;26977;44.830;-0.674;2022-10-22T13:21:00;24.30;94.20
35690;DHT22;26977;44.830;-0.674;2022-10-22T13:23:29;24.50;93.40
35690;DHT22;26977;44.830;-0.674;2022-10-22T13:26:18;24.60;93.60
35690;DHT22;26977;44.830;-0.674;2022-10-22T13:28:55;24.60;93.90
35690;DHT22;26977;44.830;-0.674;2022-10-22T13:31:27;24.90;94.00
35690;DHT22;26977;44.830;-0.674;2022-10-22T13:34:06;25.40;93.80
35690;DHT22;26977;44.830;-0.674;2022-10-22T13:36:34;25.80;92.60
35690;DHT22;26977;44.830;-0.674;2022-10-22T13:39:01;25.90;92.00
35690;DHT22;26977;44.830;-0.674;2022-10-22T13:41:29;25.90;91.90
35690;DHT22;26977;44.830;-0.674;2022-10-22T13:43:56;27.00;90.80
35690;DHT22;26977;44.830;-0.674;2022-10-22T13:46:23;27.60;90.20
35690;DHT22;26977;44.830;-0.674;2022-10-22T13:48:51;27.00;89.70
35690;DHT22;26977;44.830;-0.674;2022-10-22T13:51:31;26.30;89.80
35690;DHT22;26977;44.830;-0.674;2022-10-22T13:53:59;26.00;90.00
35690;DHT22;26977;44.830;-0.674;2022-10-22T13:56:25;25.90;89.70
35690;DHT22;26977;44.830;-0.674;2022-10-22T13:58:50;25.80;90.30
35690;DHT22;26977;44.830;-0.674;2022-10-22T14:01:21;25.70;90.70
35690;DHT22;26977;44.830;-0.674;2022-10-22T14:03:56;25.80;90.60
35690;DHT22;26977;44.830;-0.674;2022-10-22T14:06:25;25.80;90.20
35690;DHT22;26977;44.830;-0.674;2022-10-22T14:09:02;25.70;89.80
35690;DHT22;26977;44.830;-0.674;2022-10-22T14:11:28;26.30;89.20
35690;DHT22;26977;44.830;-0.674;2022-10-22T14:13:55;26.90;89.00
35690;DHT22;26977;44.830;-0.674;2022-10-22T14:16:23;27.20;89.00
35690;DHT22;26977;44.830;-0.674;2022-10-22T14:18:50;27.40;87.40
35690;DHT22;26977;44.830;-0.674;2022-10-22T14:21:17;27.60;84.40
35690;DHT22;26977;44.830;-0.674;2022-10-22T14:23:45;28.00;86.50
35690;DHT22;26977;44.830;-0.674;2022-10-22T14:26:26;28.60;87.40
35690;DHT22;26977;44.830;-0.674;2022-10-22T14:28:54;30.00;81.60
35690;DHT22;26977;44.830;-0.674;2022-10-22T14:31:20;31.20;81.80
35690;DHT22;26977;44.830;-0.674;2022-10-22T14:33:46;30.80;79.40
35690;DHT22;26977;44.830;-0.674;2022-10-22T14:36:13;31.30;80.00
35690;DHT22;26977;44.830;-0.674;2022-10-22T14:38:40;31.20;80.00
35690;DHT22;26977;44.830;-0.674;2022-10-22T14:41:24;31.50;76.80
35690;DHT22;26977;44.830;-0.674;2022-10-22T14:43:52;31.40;75.60
35690;DHT22;26977;44.830;-0.674;2022-10-22T14:46:20;29.80;77.40
35690;DHT22;26977;44.830;-0.674;2022-10-22T14:48:46;29.50;77.80
35690;DHT22;26977;44.830;-0.674;2022-10-22T14:51:14;29.40;78.30
35690;DHT22;26977;44.830;-0.674;2022-10-22T14:53:40;29.50;78.80
35690;DHT22;26977;44.830;-0.674;2022-10-22T14:56:08;29.80;76.40
35690;DHT22;26977;44.830;-0.674;2022-10-22T14:58:34;30.00;76.20
35690;DHT22;26977;44.830;-0.674;2022-10-22T15:01:03;29.50;77.00
35690;DHT22;26977;44.830;-0.674;2022-10-22T15:03:29;28.90;78.80
35690;DHT22;26977;44.830;-0.674;2022-10-22T15:05:55;28.10;78.30
35690;DHT22;26977;44.830;-0.674;2022-10-22T15:08:22;27.80;80.90
35690;DHT22;26977;44.830;-0.674;2022-10-22T15:11:06;27.40;82.00
35690;DHT22;26977;44.830;-0.674;2022-10-22T15:13:32;26.90;80.00
35690;DHT22;26977;44.830;-0.674;2022-10-22T15:15:59;26.70;81.10
35690;DHT22;26977;44.830;-0.674;2022-10-22T15:18:26;26.60;82.70
35690;DHT22;26977;44.830;-0.674;2022-10-22T15:20:59;26.60;81.30
35690;DHT22;26977;44.830;-0.674;2022-10-22T15:23:26;26.50;80.80
35690;DHT22;26977;44.830;-0.674;2022-10-22T15:25:51;26.40;81.40
35690;DHT22;26977;44.830;-0.674;2022-10-22T15:28:17;26.40;81.80
35690;DHT22;26977;44.830;-0.674;2022-10-22T15:30:43;26.10;83.50
35690;DHT22;26977;44.830;-0.674;2022-10-22T15:33:08;26.30;83.30
35690;DHT22;26977;44.830;-0.674;2022-10-22T15:35:35;26.60;83.10
35690;DHT22;26977;44.830;-0.674;2022-10-22T15:38:00;26.80;82.90
35690;DHT22;26977;44.830;-0.674;2022-10-22T15:40:26;26.90;83.10
35690;DHT22;26977;44.830;-0.674;2022-10-22T15:42:52;26.80;82.30
35690;DHT22;26977;44.830;-0.674;2022-10-22T15:45:17;27.00;82.20
35690;DHT22;26977;44.830;-0.674;2022-10-22T15:47:46;27.20;82.70
35690;DHT22;26977;44.830;-0.674;2022-10-22T15:50:12;27.10;82.10
35690;DHT22;26977;44.830;-0.674;2022-10-22T15:52:38;27.20;82.20
35690;DHT22;26977;44.830;-0.674;2022-10-22T15:55:04;27.30;82.80
35690;DHT22;26977;44.830;-0.674;2022-10-22T15:57:35;27.20;82.40
35690;DHT22;26977;44.830;-0.674;2022-10-22T16:00:00;27.10;83.20
35690;DHT22;26977;44.830;-0.674;2022-10-22T16:02:26;26.90;82.60
35690;DHT22;26977;44.830;-0.674;2022-10-22T16:04:52;26.90;82.40
35690;DHT22;26977;44.830;-0.674;2022-10-22T16:07:17;26.80;82.70
35690;DHT22;26977;44.830;-0.674;2022-10-22T16:09:43;26.50;83.20
35690;DHT22;26977;44.830;-0.674;2022-10-22T16:12:09;26.30;84.20
35690;DHT22;26977;44.830;-0.674;2022-10-22T16:14:34;25.90;83.50
35690;DHT22;26977;44.830;-0.674;2022-10-22T16:17:00;25.60;83.80
35690;DHT22;26977;44.830;-0.674;2022-10-22T16:19:26;25.20;84.30
35690;DHT22;26977;44.830;-0.674;2022-10-22T16:21:54;24.90;85.90
35690;DHT22;26977;44.830;-0.674;2022-10-22T16:24:20;24.60;85.00
35690;DHT22;26977;44.830;-0.674;2022-10-22T16:26:46;24.30;86.40
35690;DHT22;26977;44.830;-0.674;2022-10-22T16:29:12;24.10;86.30
35690;DHT22;26977;44.830;-0.674;2022-10-22T16:31:39;23.90;86.50
35690;DHT22;26977;44.830;-0.674;2022-10-22T16:34:06;23.70;86.90
35690;DHT22;26977;44.830;-0.674;2022-10-22T16:36:31;23.50;88.30
35690;DHT22;26977;44.830;-0.674;2022-10-22T16:38:57;23.30;89.80
35690;DHT22;26977;44.830;-0.674;2022-10-22T16:41:24;23.00;90.10
35690;DHT22;26977;44.830;-0.674;2022-10-22T16:43:53;22.90;90.10
35690;DHT22;26977;44.830;-0.674;2022-10-22T16:46:21;22.60;90.60
35690;DHT22;26977;44.830;-0.674;2022-10-22T16:48:49;22.40;90.90
35690;DHT22;26977;44.830;-0.674;2022-10-22T16:51:17;22.20;91.00
35690;DHT22;26977;44.830;-0.674;2022-10-22T16:53:43;22.00;91.10
35690;DHT22;26977;44.830;-0.674;2022-10-22T16:56:10;21.80;91.40
35690;DHT22;26977;44.830;-0.674;2022-10-22T16:58:37;21.70;91.90
35690;DHT22;26977;44.830;-0.674;2022-10-22T17:01:07;21.50;91.90
35690;DHT22;26977;44.830;-0.674;2022-10-22T17:03:33;21.30;92.40
35690;DHT22;26977;44.830;-0.674;2022-10-22T17:05:59;21.10;92.80
35690;DHT22;26977;44.830;-0.674;2022-10-22T17:08:25;20.90;92.70
35690;DHT22;26977;44.830;-0.674;2022-10-22T17:10:51;20.70;93.00
35690;DHT22;26977;44.830;-0.674;2022-10-22T17:13:16;20.60;93.40